Time;durP1;ratioP1;P1;durP2;ratioP2;P2;SDS_P1;SDS_P2;PMS_P1;PMS_P2;Temp;Humidity;BMP_temperature;BMP_pressure;BME280_temperature;BME280_humidity;BME280_pressure;Samples;Min_cycle;Max_cycle;Signal;HPM_P1;HPM_P2
2024/02/17 00:01:58;;;;;;;9.25;6.35;;;;;;;;;;5912007;28;20048;-79
2024/02/17 00:04:49;;;;;;;7.43;5.18;;;;;;;;;;5911235;28;20033;-80
2024/02/17 00:07:40;;;;;;;14.70;6.93;;;;;;;;;;5927899;28;20060;-80
2024/02/17 00:10:31;;;;;;;16.38;4.30;;;;;;;;;;5911150;28;20074;-79
2024/02/17 00:13:22;;;;;;;9.40;5.72;;;;;;;;;;5911027;28;20041;-79
2024/02/17 00:16:13;;;;;;;10.55;5.97;;;;;;;;;;5910761;28;20061;-80
2024/02/17 00:19:04;;;;;;;15.27;7.93;;;;;;;;;;5910828;28;20063;-79
2024/02/17 00:21:55;;;;;;;8.05;4.78;;;;;;;;;;5911372;28;20047;-79
2024/02/17 00:24:46;;;;;;;8.85;5.93;;;;;;;;;;5910875;28;20037;-80
2024/02/17 00:27:37;;;;;;;9.95;4.43;;;;;;;;;;5910841;28;20052;-80
2024/02/17 00:30:27;;;;;;;7.75;5.03;;;;;;;;;;5911928;28;20178;-79
2024/02/17 00:33:19;;;;;;;8.35;5.22;;;;;;;;;;5910636;28;20052;-80
2024/02/17 00:36:10;;;;;;;9.77;4.80;;;;;;;;;;5910403;28;20076;-79
2024/02/17 00:39:03;;;;;;;11.77;4.10;;;;;;;;;;5910756;28;20044;-79
2024/02/17 00:41:54;;;;;;;7.93;3.65;;;;;;;;;;5910932;28;20144;-80
2024/02/17 00:44:45;;;;;;;8.55;6.95;;;;;;;;;;5894244;28;20123;-80
2024/02/17 00:47:35;;;;;;;9.40;5.50;;;;;;;;;;5927053;28;20059;-80
2024/02/17 00:50:26;;;;;;;10.93;5.05;;;;;;;;;;5910255;28;20505;-80
2024/02/17 00:53:19;;;;;;;10.93;6.53;;;;;;;;;;5926666;28;20059;-80
2024/02/17 00:56:11;;;;;;;6.18;4.70;;;;;;;;;;5893713;28;20055;-79
2024/02/17 00:59:02;;;;;;;7.25;4.82;;;;;;;;;;5893942;28;20131;-79
2024/02/17 01:01:55;;;;;;;3.25;2.95;;;;;;;;;;5904550;28;20045;-80
2024/02/17 01:04:46;;;;;;;33.85;6.22;;;;;;;;;;5900982;28;20045;-80
2024/02/17 01:07:37;;;;;;;10.73;4.72;;;;;;;;;;5909805;28;20036;-80
2024/02/17 01:10:28;;;;;;;6.22;4.03;;;;;;;;;;5910083;28;20048;-80
2024/02/17 01:13:19;;;;;;;11.88;4.43;;;;;;;;;;5911035;28;20067;-79
2024/02/17 01:16:09;;;;;;;11.38;3.63;;;;;;;;;;5926536;28;20056;-79
2024/02/17 01:19:00;;;;;;;7.95;3.78;;;;;;;;;;5926634;28;20050;-80
2024/02/17 01:21:51;;;;;;;16.05;3.42;;;;;;;;;;5909504;28;20040;-79
2024/02/17 01:24:42;;;;;;;11.98;4.57;;;;;;;;;;5926262;28;20040;-80
2024/02/17 01:27:33;;;;;;;5.65;3.85;;;;;;;;;;5910620;28;20074;-79
2024/02/17 01:30:24;;;;;;;10.70;4.68;;;;;;;;;;5909147;28;20044;-80
2024/02/17 01:33:15;;;;;;;9.35;4.88;;;;;;;;;;5925559;28;20265;-79
2024/02/17 01:36:14;;;;;;;4.80;3.72;;;;;;;;;;5910389;28;20488;-79
2024/02/17 01:39:05;;;;;;;7.88;4.43;;;;;;;;;;5909052;28;20052;-79
2024/02/17 01:41:56;;;;;;;5.38;3.40;;;;;;;;;;5910844;28;20170;-79
2024/02/17 01:44:47;;;;;;;11.15;3.92;;;;;;;;;;5925885;28;20041;-80
2024/02/17 01:47:38;;;;;;;5.65;3.72;;;;;;;;;;5925329;28;20068;-80
2024/02/17 01:50:30;;;;;;;5.28;3.35;;;;;;;;;;5908898;28;20036;-80
2024/02/17 01:53:20;;;;;;;4.57;3.08;;;;;;;;;;5908712;28;20147;-80
2024/02/17 01:56:13;;;;;;;8.10;5.10;;;;;;;;;;5910222;28;20056;-79
2024/02/17 01:59:04;;;;;;;12.50;3.63;;;;;;;;;;5925505;28;20045;-79
2024/02/17 02:01:55;;;;;;;7.32;4.05;;;;;;;;;;5909306;28;20044;-79
2024/02/17 02:04:48;;;;;;;3.13;2.92;;;;;;;;;;5908619;28;20040;-80
2024/02/17 02:07:40;;;;;;;5.63;3.83;;;;;;;;;;5925177;28;20081;-80
2024/02/17 02:10:30;;;;;;;5.60;3.55;;;;;;;;;;5908755;28;20059;-80
2024/02/17 02:13:22;;;;;;;4.47;2.55;;;;;;;;;;5908240;28;20052;-80
2024/02/17 02:16:14;;;;;;;3.28;2.75;;;;;;;;;;5908366;28;20049;-79
2024/02/17 02:19:05;;;;;;;7.13;3.65;;;;;;;;;;5908366;28;20052;-79
2024/02/17 02:21:56;;;;;;;6.40;3.85;;;;;;;;;;5910187;28;20577;-80
2024/02/17 02:24:50;;;;;;;2.65;2.30;;;;;;;;;;5909784;28;20041;-80
2024/02/17 02:27:41;;;;;;;5.97;3.30;;;;;;;;;;5908477;28;20409;-80
2024/02/17 02:30:32;;;;;;;4.35;3.03;;;;;;;;;;5909398;28;20044;-78
2024/02/17 02:33:23;;;;;;;6.55;2.88;;;;;;;;;;5924952;28;20045;-80
2024/02/17 02:36:14;;;;;;;5.80;4.07;;;;;;;;;;5908038;28;20517;-79
2024/02/17 02:39:05;;;;;;;6.25;3.47;;;;;;;;;;5909411;28;20044;-79
2024/02/17 02:41:56;;;;;;;3.42;2.88;;;;;;;;;;5925319;28;20082;-80
2024/02/17 02:44:46;;;;;;;6.10;3.05;;;;;;;;;;5908228;28;20051;-80
2024/02/17 02:47:37;;;;;;;8.50;4.10;;;;;;;;;;5909265;28;20410;-80
2024/02/17 02:50:28;;;;;;;4.15;3.75;;;;;;;;;;5923981;28;20048;-80
2024/02/17 02:53:19;;;;;;;6.68;3.15;;;;;;;;;;5907335;28;20063;-80
2024/02/17 02:56:10;;;;;;;7.03;3.53;;;;;;;;;;5907689;28;20063;-80
2024/02/17 02:59:00;;;;;;;5.78;2.95;;;;;;;;;;5924318;28;20048;-77
2024/02/17 03:01:51;;;;;;;6.80;4.55;;;;;;;;;;5924904;28;20044;-80
2024/02/17 03:04:42;;;;;;;4.93;3.40;;;;;;;;;;5908899;28;20037;-80
2024/02/17 03:07:33;;;;;;;7.47;3.53;;;;;;;;;;5924444;28;20053;-80
2024/02/17 03:10:24;;;;;;;6.03;3.50;;;;;;;;;;5908838;28;20386;-80
2024/02/17 03:13:15;;;;;;;4.88;3.22;;;;;;;;;;5907264;28;20052;-80
2024/02/17 03:16:06;;;;;;;5.03;2.97;;;;;;;;;;5924204;28;20052;-80
2024/02/17 03:18:56;;;;;;;3.47;3.15;;;;;;;;;;5924721;28;20048;-80
2024/02/17 03:21:47;;;;;;;7.50;4.32;;;;;;;;;;5923807;28;20044;-79
2024/02/17 03:24:38;;;;;;;5.20;2.50;;;;;;;;;;5924126;28;20474;-80
2024/02/17 03:27:29;;;;;;;10.07;5.00;;;;;;;;;;5890634;28;20055;-80
2024/02/17 03:30:20;;;;;;;5.25;3.78;;;;;;;;;;5923746;28;20052;-80
2024/02/17 03:33:11;;;;;;;5.93;4.45;;;;;;;;;;5923989;28;20517;-79
2024/02/17 03:36:03;;;;;;;4.55;3.65;;;;;;;;;;5908428;28;20056;-79
2024/02/17 03:38:54;;;;;;;4.43;4.03;;;;;;;;;;5908372;28;20044;-80
2024/02/17 03:41:46;;;;;;;6.32;4.03;;;;;;;;;;5922982;28;20044;-80
2024/02/17 03:44:36;;;;;;;4.60;3.10;;;;;;;;;;5922825;28;20044;-80
2024/02/17 03:47:27;;;;;;;4.95;3.47;;;;;;;;;;5922919;28;20044;-80
2024/02/17 03:50:18;;;;;;;5.18;4.15;;;;;;;;;;5907748;28;20059;-80
2024/02/17 03:53:09;;;;;;;14.68;5.10;;;;;;;;;;5906406;28;20437;-80
2024/02/17 03:56:00;;;;;;;11.90;5.22;;;;;;;;;;5907986;28;20056;-80
2024/02/17 03:58:50;;;;;;;6.88;3.30;;;;;;;;;;5906335;28;20040;-80
2024/02/17 04:01:42;;;;;;;6.57;2.88;;;;;;;;;;5922985;28;20514;-80
2024/02/17 04:04:33;;;;;;;3.83;3.08;;;;;;;;;;5911919;28;20052;-80
2024/02/17 04:07:24;;;;;;;5.90;3.17;;;;;;;;;;5911725;28;20040;-80
2024/02/17 04:10:15;;;;;;;5.68;2.67;;;;;;;;;;5912111;28;20170;-80
2024/02/17 04:13:07;;;;;;;6.55;3.20;;;;;;;;;;5927965;28;20175;-79
2024/02/17 04:15:57;;;;;;;6.70;3.85;;;;;;;;;;5927904;28;20052;-80
2024/02/17 04:18:49;;;;;;;16.25;4.65;;;;;;;;;;5927500;28;20036;-80
2024/02/17 04:21:40;;;;;;;8.63;6.18;;;;;;;;;;5927921;28;20052;-80
2024/02/17 04:24:31;;;;;;;16.58;14.55;;;;;;;;;;5894803;28;20141;-80
2024/02/17 04:27:22;;;;;;;23.38;15.57;;;;;;;;;;5910898;28;20126;-80
2024/02/17 04:30:12;;;;;;;24.08;14.00;;;;;;;;;;5894471;28;20048;-80
2024/02/17 04:33:03;;;;;;;17.80;14.15;;;;;;;;;;5911587;28;20567;-80
2024/02/17 04:35:55;;;;;;;19.15;12.18;;;;;;;;;;5911671;28;20090;-80
2024/02/17 04:38:45;;;;;;;14.52;9.70;;;;;;;;;;5909682;28;20051;-81
2024/02/17 04:41:36;;;;;;;14.48;9.55;;;;;;;;;;5909928;28;20380;-80
2024/02/17 04:44:27;;;;;;;13.60;8.27;;;;;;;;;;5910341;28;20577;-80
2024/02/17 04:47:18;;;;;;;13.00;7.95;;;;;;;;;;5910218;28;20047;-80
2024/02/17 04:50:12;;;;;;;19.48;7.28;;;;;;;;;;5910199;28;20052;-80
2024/02/17 04:53:03;;;;;;;7.82;5.25;;;;;;;;;;5926047;28;20083;-80
2024/02/17 04:55:53;;;;;;;14.07;7.53;;;;;;;;;;5926393;28;20052;-81
2024/02/17 04:58:45;;;;;;;11.00;5.63;;;;;;;;;;5926131;28;20052;-80
2024/02/17 05:01:35;;;;;;;12.05;9.10;;;;;;;;;;5926075;28;20059;-80
2024/02/17 05:04:26;;;;;;;7.03;6.03;;;;;;;;;;5909347;28;20490;-80
2024/02/17 05:07:17;;;;;;;12.27;8.40;;;;;;;;;;5910459;28;20063;-80
2024/02/17 05:10:08;;;;;;;19.75;8.80;;;;;;;;;;5926359;28;20052;-80
2024/02/17 05:12:59;;;;;;;10.20;6.90;;;;;;;;;;5910092;28;20057;-80
2024/02/17 05:15:51;;;;;;;17.80;7.53;;;;;;;;;;5909015;28;20056;-80
2024/02/17 05:18:42;;;;;;;7.30;5.22;;;;;;;;;;5909352;28;20040;-80
2024/02/17 05:21:33;;;;;;;9.52;5.68;;;;;;;;;;5926089;28;20245;-80
2024/02/17 05:24:24;;;;;;;13.88;6.40;;;;;;;;;;5925891;28;20106;-80
2024/02/17 05:27:16;;;;;;;8.65;5.03;;;;;;;;;;5909756;28;20481;-80
2024/02/17 05:30:07;;;;;;;12.70;4.72;;;;;;;;;;5910374;28;20068;-79
2024/02/17 05:32:58;;;;;;;9.38;6.68;;;;;;;;;;5910179;28;20048;-79
2024/02/17 05:35:49;;;;;;;13.23;7.15;;;;;;;;;;5908534;28;20067;-79
2024/02/17 05:38:40;;;;;;;10.48;6.05;;;;;;;;;;5909625;28;20049;-79
2024/02/17 05:41:30;;;;;;;8.80;5.13;;;;;;;;;;5908552;28;20049;-79
2024/02/17 05:44:21;;;;;;;6.93;5.38;;;;;;;;;;5924894;28;20079;-79
2024/02/17 05:47:12;;;;;;;6.55;4.72;;;;;;;;;;5909547;28;20048;-79
2024/02/17 05:50:04;;;;;;;11.50;5.07;;;;;;;;;;5924717;28;20047;-79
2024/02/17 05:52:55;;;;;;;6.97;4.85;;;;;;;;;;5925183;28;20474;-80
2024/02/17 05:55:46;;;;;;;5.05;2.72;;;;;;;;;;5909005;28;20036;-80
2024/02/17 05:58:36;;;;;;;6.47;4.90;;;;;;;;;;5924600;28;20041;-79
2024/02/17 06:01:27;;;;;;;10.70;5.80;;;;;;;;;;5924541;28;20040;-79
2024/02/17 06:04:18;;;;;;;8.82;5.32;;;;;;;;;;5908213;28;20123;-79
2024/02/17 06:07:09;;;;;;;5.00;3.10;;;;;;;;;;5925009;28;20055;-79
2024/02/17 06:10:00;;;;;;;10.27;5.20;;;;;;;;;;5926146;28;20520;-80
2024/02/17 06:12:50;;;;;;;5.70;3.63;;;;;;;;;;5909627;28;20048;-79
2024/02/17 06:15:43;;;;;;;5.03;2.95;;;;;;;;;;5908317;28;20044;-80
2024/02/17 06:21:44;;;;;;;2.55;2.35;;;;;;;;;;5922481;28;20047;-80
2024/02/17 06:24:34;;;;;;;3.03;2.72;;;;;;;;;;5925291;28;20044;-79
2024/02/17 06:27:25;;;;;;;5.95;3.95;;;;;;;;;;5924989;28;20533;-80
2024/02/17 06:30:17;;;;;;;2.75;2.35;;;;;;;;;;5891756;28;20126;-80
2024/02/17 06:33:07;;;;;;;4.75;4.35;;;;;;;;;;5909257;28;20048;-79
2024/02/17 06:35:58;;;;;;;4.25;3.42;;;;;;;;;;5908017;28;20451;-80
2024/02/17 06:38:52;;;;;;;26.58;2.88;;;;;;;;;;5907262;28;20044;-80
2024/02/17 06:41:42;;;;;;;5.30;4.05;;;;;;;;;;5923373;28;20074;-79
2024/02/17 06:44:33;;;;;;;4.22;2.75;;;;;;;;;;5923851;28;20355;-80
2024/02/17 06:47:24;;;;;;;5.78;3.47;;;;;;;;;;5891059;28;20446;-79
2024/02/17 06:50:15;;;;;;;4.07;3.17;;;;;;;;;;5906983;28;20611;-79
2024/02/17 06:53:14;;;;;;;4.00;3.33;;;;;;;;;;5922575;28;20052;-79
2024/02/17 06:56:07;;;;;;;4.25;2.55;;;;;;;;;;5923584;28;20040;-79
2024/02/17 06:58:58;;;;;;;8.63;3.63;;;;;;;;;;5924093;28;20230;-79
2024/02/17 07:01:49;;;;;;;3.17;2.63;;;;;;;;;;5923624;28;20059;-79
2024/02/17 07:04:40;;;;;;;4.13;3.03;;;;;;;;;;5907865;28;20049;-79
2024/02/17 07:07:31;;;;;;;9.85;4.30;;;;;;;;;;5924061;28;20048;-80
2024/02/17 07:10:22;;;;;;;3.00;2.53;;;;;;;;;;5924188;28;20040;-79
2024/02/17 07:13:12;;;;;;;3.78;2.70;;;;;;;;;;5907953;28;20056;-80
2024/02/17 07:16:03;;;;;;;5.85;4.10;;;;;;;;;;5924637;28;20502;-79
2024/02/17 07:18:59;;;;;;;8.15;5.97;;;;;;;;;;5910172;28;20131;-79
2024/02/17 07:21:50;;;;;;;8.18;4.25;;;;;;;;;;5924477;28;20436;-79
2024/02/17 07:24:42;;;;;;;5.80;3.67;;;;;;;;;;5923649;28;20048;-79
2024/02/17 07:27:33;;;;;;;5.55;3.42;;;;;;;;;;5907886;28;20410;-80
2024/02/17 07:30:25;;;;;;;6.13;4.38;;;;;;;;;;5907952;28;20048;-80
2024/02/17 07:33:16;;;;;;;5.63;3.90;;;;;;;;;;5906504;28;20537;-80
2024/02/17 07:36:07;;;;;;;5.70;2.92;;;;;;;;;;5923022;28;20044;-80
2024/02/17 07:38:58;;;;;;;3.17;2.47;;;;;;;;;;5911830;28;20056;-80
2024/02/17 07:41:49;;;;;;;7.22;4.55;;;;;;;;;;5927876;28;20048;-80
2024/02/17 07:44:45;;;;;;;11.85;8.75;;;;;;;;;;5911078;28;20049;-80
2024/02/17 07:47:36;;;;;;;8.65;6.70;;;;;;;;;;5926936;28;20081;-80
2024/02/17 07:50:27;;;;;;;6.07;4.93;;;;;;;;;;5911881;28;20122;-80
2024/02/17 07:53:18;;;;;;;4.95;3.92;;;;;;;;;;5911974;28;20045;-80
2024/02/17 07:56:10;;;;;;;5.85;5.25;;;;;;;;;;5927345;28;20075;-80
2024/02/17 07:59:01;;;;;;;7.55;5.95;;;;;;;;;;5895458;28;20048;-80
2024/02/17 08:01:51;;;;;;;7.85;6.07;;;;;;;;;;5929241;28;20409;-80
2024/02/17 08:04:43;;;;;;;14.63;7.32;;;;;;;;;;5929089;28;20044;-81
2024/02/17 08:07:35;;;;;;;8.63;7.72;;;;;;;;;;5928955;28;20447;-81
2024/02/17 08:10:26;;;;;;;12.48;7.28;;;;;;;;;;5913450;28;20468;-80
2024/02/17 08:13:17;;;;;;;20.50;7.50;;;;;;;;;;5913528;28;20056;-80
2024/02/17 08:16:09;;;;;;;8.43;6.50;;;;;;;;;;5911965;28;20049;-80
2024/02/17 08:19:00;;;;;;;8.32;5.95;;;;;;;;;;5929476;28;20066;-80
2024/02/17 08:21:51;;;;;;;10.48;7.57;;;;;;;;;;5913577;28;20131;-80
2024/02/17 08:24:42;;;;;;;8.73;7.20;;;;;;;;;;5928481;28;20506;-80
2024/02/17 08:27:36;;;;;;;6.00;4.85;;;;;;;;;;5912197;28;20048;-80
2024/02/17 08:30:27;;;;;;;8.25;5.55;;;;;;;;;;5910743;28;20040;-80
2024/02/17 08:33:18;;;;;;;11.88;6.82;;;;;;;;;;5912093;28;20052;-80
2024/02/17 08:36:09;;;;;;;23.10;10.52;;;;;;;;;;5927170;28;20094;-80
2024/02/17 08:38:59;;;;;;;10.73;7.85;;;;;;;;;;5912349;28;20040;-80
2024/02/17 08:41:53;;;;;;;16.33;12.15;;;;;;;;;;5910697;28;20041;-80
2024/02/17 08:44:44;;;;;;;20.65;9.73;;;;;;;;;;5911861;28;20143;-80
2024/02/17 08:47:35;;;;;;;18.77;12.70;;;;;;;;;;5911599;28;20040;-79
2024/02/17 08:50:25;;;;;;;13.18;10.52;;;;;;;;;;5910151;28;20098;-80
2024/02/17 08:53:16;;;;;;;15.35;9.48;;;;;;;;;;5910206;28;20044;-80
2024/02/17 08:56:07;;;;;;;24.27;15.38;;;;;;;;;;5911670;28;20044;-80
2024/02/17 08:58:58;;;;;;;25.50;12.45;;;;;;;;;;5910709;28;20122;-80
2024/02/17 09:01:49;;;;;;;16.52;13.23;;;;;;;;;;5909599;28;20045;-80
2024/02/17 09:04:39;;;;;;;25.23;11.88;;;;;;;;;;5909140;28;20125;-80
2024/02/17 09:07:30;;;;;;;25.48;18.67;;;;;;;;;;5893308;28;20094;-80
2024/02/17 09:10:21;;;;;;;20.88;11.90;;;;;;;;;;5909315;28;20053;-80
2024/02/17 09:13:12;;;;;;;17.90;8.98;;;;;;;;;;5909456;28;20541;-79
2024/02/17 09:16:03;;;;;;;15.15;10.52;;;;;;;;;;5910790;28;20047;-79
2024/02/17 09:18:54;;;;;;;16.33;11.70;;;;;;;;;;5909798;28;20067;-79
2024/02/17 09:21:45;;;;;;;30.33;14.13;;;;;;;;;;5909078;28;20067;-79
2024/02/17 09:24:36;;;;;;;19.42;11.45;;;;;;;;;;5910479;28;20141;-79
2024/02/17 09:27:27;;;;;;;38.63;22.42;;;;;;;;;;5910057;28;20045;-79
2024/02/17 09:30:19;;;;;;;33.78;21.20;;;;;;;;;;5908693;28;20581;-79
2024/02/17 09:33:11;;;;;;;43.50;21.00;;;;;;;;;;5908175;28;20430;-79
2024/02/17 09:36:02;;;;;;;10.68;6.65;;;;;;;;;;5908815;28;20094;-79
2024/02/17 09:38:53;;;;;;;23.85;10.20;;;;;;;;;;5910383;28;20048;-79
2024/02/17 09:41:44;;;;;;;11.25;6.90;;;;;;;;;;5910151;28;20044;-78
2024/02/17 09:44:35;;;;;;;23.77;10.63;;;;;;;;;;5908519;28;20044;-79
2024/02/17 09:47:27;;;;;;;26.92;15.15;;;;;;;;;;5908325;28;20041;-79
2024/02/17 09:50:18;;;;;;;15.90;6.90;;;;;;;;;;5908300;28;20044;-79
2024/02/17 09:53:10;;;;;;;43.78;24.02;;;;;;;;;;5924994;28;20098;-79
2024/02/17 09:56:01;;;;;;;21.88;10.52;;;;;;;;;;5908286;28;20041;-78
2024/02/17 09:58:52;;;;;;;18.83;11.32;;;;;;;;;;5908762;28;20056;-79
2024/02/17 10:01:45;;;;;;;12.60;10.35;;;;;;;;;;5908014;28;20047;-79
2024/02/17 10:04:52;;;;;;;12.93;8.77;;;;;;;;;;5907688;28;20198;-78
2024/02/17 10:07:53;;;;;;;17.02;7.05;;;;;;;;;;5909539;28;20037;-79
2024/02/17 10:10:44;;;;;;;7.75;6.47;;;;;;;;;;5924752;28;20040;-78
2024/02/17 10:13:36;;;;;;;10.98;7.13;;;;;;;;;;5909261;28;20071;-78
2024/02/17 10:16:32;;;;;;;8.50;7.68;;;;;;;;;;5924689;28;20044;-79
2024/02/17 10:19:23;;;;;;;8.48;4.97;;;;;;;;;;5908163;28;20123;-78
2024/02/17 10:22:14;;;;;;;8.00;5.05;;;;;;;;;;5924617;28;20094;-78
2024/02/17 10:25:07;;;;;;;7.60;4.47;;;;;;;;;;5925023;28;20083;-79
2024/02/17 10:27:58;;;;;;;9.13;7.13;;;;;;;;;;5908147;28;20541;-78
2024/02/17 10:30:49;;;;;;;10.88;8.75;;;;;;;;;;5907792;28;20045;-78
2024/02/17 10:33:40;;;;;;;7.97;5.07;;;;;;;;;;5908781;28;20050;-78
2024/02/17 10:36:31;;;;;;;8.05;6.35;;;;;;;;;;5908680;28;20044;-78
2024/02/17 10:39:24;;;;;;;11.07;8.00;;;;;;;;;;5908640;28;20074;-78
2024/02/17 10:42:14;;;;;;;16.55;7.95;;;;;;;;;;5907369;28;20178;-78
2024/02/17 10:45:06;;;;;;;11.70;5.53;;;;;;;;;;5924144;28;20576;-78
2024/02/17 10:48:07;;;;;;;7.65;6.22;;;;;;;;;;5907919;28;20044;-78
2024/02/17 10:50:59;;;;;;;9.25;7.28;;;;;;;;;;5908617;28;20043;-78
2024/02/17 10:54:00;;;;;;;7.72;6.28;;;;;;;;;;5924832;28;20067;-78
2024/02/17 10:56:51;;;;;;;10.88;7.90;;;;;;;;;;5907600;28;20048;-78
2024/02/17 10:59:44;;;;;;;8.82;6.28;;;;;;;;;;5909115;28;20063;-78
2024/02/17 11:02:35;;;;;;;9.30;7.45;;;;;;;;;;5923947;28;20055;-78
2024/02/17 11:05:27;;;;;;;9.98;6.45;;;;;;;;;;5923216;28;20048;-78
2024/02/17 11:08:19;;;;;;;9.50;7.20;;;;;;;;;;5908451;28;20045;-78
2024/02/17 11:11:29;;;;;;;7.20;6.20;;;;;;;;;;5923436;28;20044;-78
2024/02/17 11:14:42;;;;;;;8.60;6.72;;;;;;;;;;5923009;28;20164;-78
2024/02/17 11:17:50;;;;;;;8.88;7.50;;;;;;;;;;5890406;28;20040;-78
2024/02/17 11:20:44;;;;;;;8.87;6.23;;;;;;;;;;5923760;28;20048;-78
2024/02/17 11:23:40;;;;;;;10.00;8.10;;;;;;;;;;5923784;28;20132;-78
2024/02/17 11:26:32;;;;;;;11.15;8.60;;;;;;;;;;5923687;28;20040;-78
2024/02/17 11:29:34;;;;;;;12.98;8.02;;;;;;;;;;5921830;28;20071;-78
2024/02/17 11:32:30;;;;;;;14.73;8.00;;;;;;;;;;5907955;28;20060;-78
2024/02/17 11:35:22;;;;;;;11.85;8.43;;;;;;;;;;5891174;28;20051;-78
2024/02/17 11:38:17;;;;;;;10.32;6.88;;;;;;;;;;5923092;28;20494;-78
2024/02/17 11:41:07;;;;;;;11.07;9.02;;;;;;;;;;5906486;28;20045;-78
2024/02/17 11:44:01;;;;;;;11.80;7.28;;;;;;;;;;5908434;28;20112;-78
2024/02/17 11:46:51;;;;;;;7.68;6.97;;;;;;;;;;5908161;28;20041;-77
2024/02/17 11:49:42;;;;;;;7.78;5.60;;;;;;;;;;5907901;28;20048;-78
2024/02/17 11:52:34;;;;;;;10.63;7.07;;;;;;;;;;5923012;28;20056;-78
2024/02/17 11:55:25;;;;;;;11.65;8.52;;;;;;;;;;5923160;28;20051;-78
2024/02/17 11:58:19;;;;;;;12.00;7.53;;;;;;;;;;5922604;28;20056;-78
2024/02/17 12:01:13;;;;;;;6.40;5.63;;;;;;;;;;5906693;28;20422;-78
2024/02/17 12:04:05;;;;;;;9.32;7.47;;;;;;;;;;5906645;28;20422;-78
2024/02/17 12:06:56;;;;;;;18.98;8.55;;;;;;;;;;5908324;28;20051;-78
2024/02/17 12:09:47;;;;;;;10.13;7.72;;;;;;;;;;5906258;28;20127;-78
2024/02/17 12:12:42;;;;;;;11.25;7.97;;;;;;;;;;5907398;28;20045;-78
2024/02/17 12:15:33;;;;;;;9.82;6.72;;;;;;;;;;5906428;28;20048;-78
2024/02/17 12:18:24;;;;;;;11.07;7.88;;;;;;;;;;5889509;28;20094;-78
2024/02/17 12:21:16;;;;;;;11.00;7.50;;;;;;;;;;5907052;28;20053;-78
2024/02/17 12:24:08;;;;;;;14.30;8.25;;;;;;;;;;5909170;28;20487;-78
2024/02/17 12:26:59;;;;;;;8.82;6.88;;;;;;;;;;5927966;28;20395;-78
2024/02/17 12:29:50;;;;;;;12.80;8.55;;;;;;;;;;5927874;28;20117;-78
2024/02/17 12:32:41;;;;;;;10.15;7.68;;;;;;;;;;5926472;28;20047;-78
2024/02/17 12:35:33;;;;;;;19.15;12.98;;;;;;;;;;5927093;28;20052;-78
2024/02/17 12:38:24;;;;;;;14.80;10.70;;;;;;;;;;5909704;28;20043;-78
2024/02/17 12:41:16;;;;;;;18.30;11.32;;;;;;;;;;5910127;28;20582;-78
2024/02/17 12:44:07;;;;;;;34.30;20.17;;;;;;;;;;5911337;28;20422;-78
2024/02/17 12:46:58;;;;;;;48.75;24.50;;;;;;;;;;5893885;28;20052;-78
2024/02/17 12:49:49;;;;;;;37.13;24.02;;;;;;;;;;5909760;28;20064;-78
2024/02/17 12:52:40;;;;;;;17.40;11.77;;;;;;;;;;5909786;28;20049;-78
2024/02/17 12:55:30;;;;;;;18.00;12.93;;;;;;;;;;5910766;28;20051;-78
2024/02/17 12:58:21;;;;;;;13.57;9.68;;;;;;;;;;5909524;28;20045;-78
2024/02/17 13:01:12;;;;;;;12.77;10.57;;;;;;;;;;5910611;28;20074;-78
2024/02/17 13:04:03;;;;;;;29.10;18.98;;;;;;;;;;5910468;28;20048;-78
2024/02/17 13:06:54;;;;;;;32.05;19.30;;;;;;;;;;5909979;28;20045;-78
2024/02/17 13:09:45;;;;;;;18.65;12.88;;;;;;;;;;5909242;28;20072;-78
2024/02/17 13:12:36;;;;;;;18.88;9.73;;;;;;;;;;5909192;28;20064;-78
2024/02/17 13:15:27;;;;;;;14.23;10.23;;;;;;;;;;5910471;28;20147;-78
2024/02/17 13:18:18;;;;;;;10.73;7.60;;;;;;;;;;5910022;28;20149;-78
2024/02/17 13:21:09;;;;;;;14.48;9.50;;;;;;;;;;5910187;28;20406;-78
2024/02/17 13:24:02;;;;;;;12.05;7.90;;;;;;;;;;5909266;28;20075;-78
2024/02/17 13:26:52;;;;;;;9.35;6.90;;;;;;;;;;5909207;28;20041;-78
2024/02/17 13:29:43;;;;;;;14.18;9.68;;;;;;;;;;5910226;28;20044;-78
2024/02/17 13:32:37;;;;;;;14.45;9.63;;;;;;;;;;5926148;28;20041;-78
2024/02/17 13:35:27;;;;;;;21.52;10.90;;;;;;;;;;5908534;28;20040;-78
2024/02/17 13:38:18;;;;;;;24.38;11.65;;;;;;;;;;5910651;28;20045;-78
2024/02/17 13:41:19;;;;;;;14.52;11.10;;;;;;;;;;5909455;28;20362;-78
2024/02/17 13:44:10;;;;;;;13.25;10.30;;;;;;;;;;5909279;28;20486;-78
2024/02/17 13:47:01;;;;;;;14.20;9.75;;;;;;;;;;5909435;28;20055;-78
2024/02/17 13:49:52;;;;;;;11.75;8.82;;;;;;;;;;5910939;28;20105;-78
2024/02/17 13:52:43;;;;;;;25.08;10.25;;;;;;;;;;5908933;28;20063;-78
2024/02/17 13:55:34;;;;;;;12.35;8.07;;;;;;;;;;5892128;28;20055;-78
2024/02/17 13:58:27;;;;;;;15.27;9.80;;;;;;;;;;5925216;28;20178;-78
2024/02/17 14:01:18;;;;;;;17.50;8.57;;;;;;;;;;5908457;28;20049;-78
2024/02/17 14:04:09;;;;;;;10.45;7.20;;;;;;;;;;5910147;28;20083;-78
2024/02/17 14:07:00;;;;;;;15.77;7.60;;;;;;;;;;5925303;28;20041;-78
2024/02/17 14:09:52;;;;;;;14.02;9.98;;;;;;;;;;5924612;28;20041;-79
2024/02/17 14:12:43;;;;;;;8.27;6.18;;;;;;;;;;5907939;28;20131;-79
2024/02/17 14:15:34;;;;;;;13.45;9.48;;;;;;;;;;5924274;28;20135;-79
2024/02/17 14:18:27;;;;;;;12.10;9.95;;;;;;;;;;5924209;28;20045;-79
2024/02/17 14:21:18;;;;;;;12.98;8.55;;;;;;;;;;5908989;28;20126;-79
2024/02/17 14:24:09;;;;;;;19.17;11.65;;;;;;;;;;5908721;28;20056;-79
2024/02/17 14:27:00;;;;;;;15.75;7.57;;;;;;;;;;5907765;28;20053;-78
2024/02/17 14:29:55;;;;;;;12.75;9.18;;;;;;;;;;5924331;28;20036;-79
2024/02/17 14:32:46;;;;;;;17.15;10.20;;;;;;;;;;5923397;28;20146;-79
2024/02/17 14:35:37;;;;;;;19.42;12.32;;;;;;;;;;5907209;28;20067;-79
2024/02/17 14:38:27;;;;;;;14.13;10.15;;;;;;;;;;5907168;28;20066;-79
2024/02/17 14:41:18;;;;;;;17.33;10.60;;;;;;;;;;5890573;28;20048;-79
2024/02/17 14:44:09;;;;;;;16.73;10.82;;;;;;;;;;5908509;28;20048;-79
2024/02/17 14:47:00;;;;;;;23.85;15.20;;;;;;;;;;5890754;28;20056;-79
2024/02/17 14:49:51;;;;;;;18.48;11.27;;;;;;;;;;5907257;28;20045;-79
2024/02/17 14:52:43;;;;;;;23.33;13.45;;;;;;;;;;5907032;28;20133;-78
2024/02/17 14:55:33;;;;;;;19.02;11.50;;;;;;;;;;5906958;28;20051;-78
2024/02/17 14:58:24;;;;;;;13.48;9.77;;;;;;;;;;5908327;28;20047;-78
2024/02/17 15:01:17;;;;;;;11.13;8.60;;;;;;;;;;5924746;28;20056;-78
2024/02/17 15:04:08;;;;;;;9.80;7.32;;;;;;;;;;5907405;28;20395;-78
2024/02/17 15:06:59;;;;;;;15.13;11.45;;;;;;;;;;5924817;28;20076;-78
2024/02/17 15:09:52;;;;;;;17.85;10.10;;;;;;;;;;5908586;28;20033;-78
2024/02/17 15:12:43;;;;;;;38.20;21.02;;;;;;;;;;5907508;28;20048;-79
2024/02/17 15:15:34;;;;;;;23.02;14.05;;;;;;;;;;5891750;28;20048;-79
2024/02/17 15:18:27;;;;;;;27.92;16.02;;;;;;;;;;5906869;28;20044;-79
2024/02/17 15:21:18;;;;;;;25.77;14.95;;;;;;;;;;5890899;28;20059;-79
2024/02/17 15:24:09;;;;;;;29.42;17.77;;;;;;;;;;5908580;28;20186;-79
2024/02/17 15:27:00;;;;;;;40.72;22.30;;;;;;;;;;5907701;28;20433;-79
2024/02/17 15:29:51;;;;;;;20.70;13.32;;;;;;;;;;5909164;28;20464;-79
2024/02/17 15:32:41;;;;;;;21.30;12.75;;;;;;;;;;5908604;28;20045;-79
2024/02/17 15:35:32;;;;;;;17.88;10.60;;;;;;;;;;5906724;28;20406;-78
2024/02/17 15:38:26;;;;;;;8.40;7.30;;;;;;;;;;5906512;28;20045;-78
2024/02/17 15:41:17;;;;;;;9.38;6.88;;;;;;;;;;5922841;28;20063;-79
2024/02/17 15:44:07;;;;;;;9.90;5.20;;;;;;;;;;5908000;28;20387;-78
2024/02/17 15:46:58;;;;;;;8.43;6.10;;;;;;;;;;5923574;28;20041;-78
2024/02/17 15:49:49;;;;;;;10.65;5.07;;;;;;;;;;5906152;28;20037;-78
2024/02/17 15:52:39;;;;;;;10.85;4.97;;;;;;;;;;5908087;28;20044;-78
2024/02/17 15:55:31;;;;;;;6.97;4.03;;;;;;;;;;5907708;28;20049;-79
2024/02/17 15:58:22;;;;;;;7.88;3.53;;;;;;;;;;5908720;28;20044;-78
2024/02/17 16:01:13;;;;;;;5.28;3.85;;;;;;;;;;5912180;28;20422;-79
2024/02/17 16:04:04;;;;;;;8.10;2.70;;;;;;;;;;5912095;28;20047;-79
2024/02/17 16:06:55;;;;;;;2.28;2.05;;;;;;;;;;5912455;28;20097;-79
2024/02/17 16:09:47;;;;;;;3.58;2.10;;;;;;;;;;5927449;28;20067;-78
2024/02/17 16:12:43;;;;;;;6.72;1.88;;;;;;;;;;5911832;28;20494;-78
2024/02/17 16:15:34;;;;;;;2.10;0.98;;;;;;;;;;5894179;28;20040;-78
2024/02/17 16:18:29;;;;;;;2.53;1.80;;;;;;;;;;5910680;28;20552;-78
2024/02/17 16:21:21;;;;;;;1.83;1.45;;;;;;;;;;5910412;28;20509;-78
2024/02/17 16:24:12;;;;;;;2.63;2.28;;;;;;;;;;5927045;28;20040;-78
2024/02/17 16:27:03;;;;;;;3.42;2.40;;;;;;;;;;5927461;28;20048;-78
2024/02/17 16:29:54;;;;;;;4.43;3.47;;;;;;;;;;5927569;28;20052;-78
2024/02/17 16:32:44;;;;;;;6.85;4.40;;;;;;;;;;5927404;28;20052;-79
2024/02/17 16:35:35;;;;;;;5.38;3.08;;;;;;;;;;5926864;28;20048;-78
2024/02/17 16:38:26;;;;;;;1.95;1.70;;;;;;;;;;5909740;28;20439;-78
2024/02/17 16:41:17;;;;;;;6.07;1.70;;;;;;;;;;5926840;28;20048;-78
2024/02/17 16:44:08;;;;;;;6.15;3.25;;;;;;;;;;5911533;28;20048;-78
2024/02/17 16:46:59;;;;;;;9.43;5.47;;;;;;;;;;5927450;28;20505;-78
2024/02/17 16:49:49;;;;;;;7.63;5.18;;;;;;;;;;5926713;28;20047;-78
2024/02/17 16:52:40;;;;;;;11.05;7.43;;;;;;;;;;5910880;28;20066;-78
2024/02/17 16:55:31;;;;;;;11.25;5.50;;;;;;;;;;5911098;28;20430;-78
2024/02/17 16:58:22;;;;;;;7.80;4.18;;;;;;;;;;5926635;28;20152;-78
2024/02/17 17:01:12;;;;;;;13.98;5.90;;;;;;;;;;5925944;28;20045;-79